Time;durP1;ratioP1;P1;durP2;ratioP2;P2;SDS_P1;SDS_P2;PMS_P1;PMS_P2;Temp;Humidity;BMP_temperature;BMP_pressure;BME280_temperature;BME280_humidity;BME280_pressure;Samples;Min_cycle;Max_cycle;Signal;HPM_P1;HPM_P2
2021/01/26 00:01:59;;;;;;;;;;;;;;;;;;5008010;28;880;-66
2021/01/26 00:04:24;;;;;;;;;;;;;;;;;;5009073;28;834;-66
2021/01/26 00:06:49;;;;;;;;;;;;;;;;;;5008418;28;803;-66
2021/01/26 00:09:14;;;;;;;;;;;;;;;;;;5008341;28;1143;-66
2021/01/26 00:11:40;;;;;;;;;;;;;;;;;;5007953;28;898;-66
2021/01/26 00:14:05;;;;;;;;;;;;;;;;;;5007975;28;926;-65
2021/01/26 00:16:30;;;;;;;;;;;;;;;;;;5008232;28;1902;-67
2021/01/26 00:18:56;;;;;;;;;;;;;;;;;;5007262;28;773;-65
2021/01/26 00:21:21;;;;;;;;;;;;;;;;;;5008888;28;815;-66
2021/01/26 00:23:47;;;;;;;;;;;;;;;;;;5007741;28;931;-66
2021/01/26 00:26:12;;;;;;;;;;;;;;;;;;5008335;28;859;-65
2021/01/26 00:28:37;;;;;;;;;;;;;;;;;;5008017;28;934;-66
2021/01/26 00:31:03;;;;;;;;;;;;;;;;;;5008066;28;854;-66
2021/01/26 00:33:28;;;;;;;;;;;;;;;;;;5007853;28;855;-66
2021/01/26 00:35:53;;;;;;;;;;;;;;;;;;5008450;28;1968;-66
2021/01/26 00:38:19;;;;;;;;;;;;;;;;;;5007376;28;839;-66
2021/01/26 00:40:45;;;;;;;;;;;;;;;;;;5007544;28;911;-66
2021/01/26 00:43:11;;;;;;;;;;;;;;;;;;5008147;28;808;-61
2021/01/26 00:45:36;;;;;;;;;;;;;;;;;;5007041;28;883;-67
2021/01/26 00:48:02;;;;;;;;;;;;;;;;;;5007040;28;843;-65
2021/01/26 00:50:27;;;;;;;;;;;;;;;;;;5007360;28;828;-68
2021/01/26 00:52:53;;;;;;;;;;;;;;;;;;5007166;28;904;-65
2021/01/26 00:55:19;;;;;;;;;;;;;;;;;;5007614;28;1894;-65
2021/01/26 00:57:45;;;;;;;;;;;;;;;;;;5007627;28;918;-66
2021/01/26 01:00:14;;;;;;;;;;;;;;;;;;5007785;28;903;-67
2021/01/26 01:02:39;;;;;;;;;;;;;;;;;;5007542;28;792;-66
2021/01/26 01:05:06;;;;;;;;;;;;;;;;;;5007006;28;831;-66
2021/01/26 01:07:31;;;;;;;;;;;;;;;;;;5007289;28;883;-66
2021/01/26 01:09:56;;;;;;;;;;;;;;;;;;5007549;28;1151;-67
2021/01/26 01:12:22;;;;;;;;;;;;;;;;;;5007919;28;930;-66
2021/01/26 01:14:47;;;;;;;;;;;;;;;;;;5010852;28;894;-66
2021/01/26 01:17:12;;;;;;;;;;;;;;;;;;5011206;28;1975;-66
2021/01/26 01:19:38;;;;;;;;;;;;;;;;;;5011474;28;862;-65
2021/01/26 01:22:03;;;;;;;;;;;;;;;;;;5011274;28;941;-66
2021/01/26 01:24:29;;;;;;;;;;;;;;;;;;5011737;28;756;-66
2021/01/26 01:26:54;;;;;;;;;;;;;;;;;;5012424;28;827;-66
2021/01/26 01:29:19;;;;;;;;;;;;;;;;;;5011113;28;839;-66
2021/01/26 01:31:45;;;;;;;;;;;;;;;;;;5010539;28;875;-66
2021/01/26 01:34:10;;;;;;;;;;;;;;;;;;5011258;28;922;-66
2021/01/26 01:36:36;;;;;;;;;;;;;;;;;;5010881;28;1989;-65
2021/01/26 01:39:03;;;;;;;;;;;;;;;;;;5010778;28;836;-65
2021/01/26 01:41:32;;;;;;;;;;;;;;;;;;5011028;28;832;-64
2021/01/26 01:43:57;;;;;;;;;;;;;;;;;;5011189;28;914;-67
2021/01/26 01:46:24;;;;;;;;;;;;;;;;;;5011981;28;832;-65
2021/01/26 01:48:52;;;;;;;;;;;;;;;;;;5011303;28;878;-66
2021/01/26 01:51:20;;;;;;;;;;;;;;;;;;5010932;28;846;-66
2021/01/26 01:53:45;;;;;;;;;;;;;;;;;;5011031;28;819;-66
2021/01/26 01:56:13;;;;;;;;;;;;;;;;;;5010577;28;1894;-66
2021/01/26 01:58:44;;;;;;;;;;;;;;;;;;5011043;28;914;-65
2021/01/26 02:01:12;;;;;;;;;;;;;;;;;;5010519;28;927;-66
2021/01/26 02:03:40;;;;;;;;;;;;;;;;;;5010462;28;848;-66
2021/01/26 02:06:06;;;;;;;;;;;;;;;;;;5010466;28;831;-65
2021/01/26 02:08:43;;;;;;;;;;;;;;;;;;5010487;28;907;-65
2021/01/26 02:11:09;;;;;;;;;;;;;;;;;;5010340;28;1021;-65
2021/01/26 02:13:34;;;;;;;;;;;;;;;;;;5010604;28;812;-65
2021/01/26 02:16:01;;;;;;;;;;;;;;;;;;5009371;28;1910;-65
2021/01/26 02:18:27;;;;;;;;;;;;;;;;;;5010304;28;837;-66
2021/01/26 02:21:10;;;;;;;;;;;;;;;;;;5011359;28;844;-66
2021/01/26 02:24:14;;;;;;;;;;;;;;;;;;5010379;28;897;-66
2021/01/26 02:27:03;;;;;;;;;;;;;;;;;;4987822;28;1167;-66
2021/01/26 02:29:34;;;;;;;;;;;;;;;;;;4987870;28;804;-65
2021/01/26 02:32:06;;;;;;;;;;;;;;;;;;5002376;28;969;-67
2021/01/26 02:34:46;;;;;;;;;;;;;;;;;;5009854;28;819;-66
2021/01/26 02:37:24;;;;;;;;;;;;;;;;;;5009644;28;1981;-65
2021/01/26 02:39:49;;;;;;;;;;;;;;;;;;5010046;28;828;-65
2021/01/26 02:42:18;;;;;;;;;;;;;;;;;;5009447;28;911;-65
2021/01/26 02:45:11;;;;;;;;;;;;;;;;;;5009907;28;819;-66
2021/01/26 02:47:54;;;;;;;;;;;;;;;;;;5010025;28;930;-66
2021/01/26 02:50:26;;;;;;;;;;;;;;;;;;5009597;28;918;-65
2021/01/26 02:52:51;;;;;;;;;;;;;;;;;;5010246;28;871;-66
2021/01/26 02:55:28;;;;;;;;;;;;;;;;;;5009199;28;1890;-68
2021/01/26 02:58:01;;;;;;;;;;;;;;;;;;5010362;28;875;-65
2021/01/26 03:00:29;;;;;;;;;;;;;;;;;;5007913;28;1615;-67
2021/01/26 03:03:00;;;;;;;;;;;;;;;;;;5010095;28;808;-67
2021/01/26 03:05:49;;;;;;;;;;;;;;;;;;5009360;28;859;-70
2021/01/26 03:08:19;;;;;;;;;;;;;;;;;;5008829;28;780;-67
2021/01/26 03:10:59;;;;;;;;;;;;;;;;;;5009013;28;1139;-67
2021/01/26 03:13:26;;;;;;;;;;;;;;;;;;5010477;28;875;-67
2021/01/26 03:15:56;;;;;;;;;;;;;;;;;;5009561;28;1898;-67
2021/01/26 03:18:27;;;;;;;;;;;;;;;;;;5009649;28;812;-66
2021/01/26 03:20:55;;;;;;;;;;;;;;;;;;5010226;28;954;-67
2021/01/26 03:23:31;;;;;;;;;;;;;;;;;;5009102;28;863;-67
2021/01/26 03:25:57;;;;;;;;;;;;;;;;;;5008867;28;1205;-70
2021/01/26 03:28:24;;;;;;;;;;;;;;;;;;5009409;28;872;-67
2021/01/26 03:30:52;;;;;;;;;;;;;;;;;;5009114;28;946;-67
2021/01/26 03:33:26;;;;;;;;;;;;;;;;;;5008956;28;863;-67
2021/01/26 03:35:51;;;;;;;;;;;;;;;;;;5008695;28;1894;-68
2021/01/26 03:38:24;;;;;;;;;;;;;;;;;;5009203;28;863;-67
2021/01/26 03:40:50;;;;;;;;;;;;;;;;;;5008672;28;1091;-67
2021/01/26 03:43:16;;;;;;;;;;;;;;;;;;5008574;28;899;-67
2021/01/26 03:45:42;;;;;;;;;;;;;;;;;;5008135;28;885;-66
2021/01/26 03:48:08;;;;;;;;;;;;;;;;;;5008335;28;898;-67
2021/01/26 03:50:42;;;;;;;;;;;;;;;;;;5008175;28;882;-67
2021/01/26 03:53:20;;;;;;;;;;;;;;;;;;5007891;28;859;-67
2021/01/26 03:56:03;;;;;;;;;;;;;;;;;;5008133;28;1967;-66
2021/01/26 03:58:47;;;;;;;;;;;;;;;;;;5008213;28;918;-67
2021/01/26 04:01:18;;;;;;;;;;;;;;;;;;5008108;28;923;-67
2021/01/26 04:03:50;;;;;;;;;;;;;;;;;;5008872;28;823;-67
2021/01/26 04:06:30;;;;;;;;;;;;;;;;;;5007714;28;812;-68
2021/01/26 04:08:58;;;;;;;;;;;;;;;;;;5008410;28;855;-66
2021/01/26 04:11:26;;;;;;;;;;;;;;;;;;5007582;28;1108;-67
2021/01/26 04:13:59;;;;;;;;;;;;;;;;;;5008969;28;828;-67
2021/01/26 04:16:27;;;;;;;;;;;;;;;;;;5008562;28;1902;-66
2021/01/26 04:18:53;;;;;;;;;;;;;;;;;;5008970;28;800;-67
2021/01/26 04:21:20;;;;;;;;;;;;;;;;;;5008019;28;827;-67
2021/01/26 04:23:45;;;;;;;;;;;;;;;;;;5007996;28;808;-67
2021/01/26 04:26:14;;;;;;;;;;;;;;;;;;5007903;28;832;-67
2021/01/26 04:28:41;;;;;;;;;;;;;;;;;;5008447;28;807;-67
2021/01/26 04:31:07;;;;;;;;;;;;;;;;;;5008108;28;875;-67
2021/01/26 04:33:32;;;;;;;;;;;;;;;;;;5006500;28;849;-67
2021/01/26 04:35:58;;;;;;;;;;;;;;;;;;5008114;28;1914;-67
2021/01/26 04:38:23;;;;;;;;;;;;;;;;;;5008777;28;875;-67
2021/01/26 04:40:50;;;;;;;;;;;;;;;;;;5007222;28;866;-67
2021/01/26 04:43:16;;;;;;;;;;;;;;;;;;5007484;28;918;-66
2021/01/26 04:45:41;;;;;;;;;;;;;;;;;;5008198;28;883;-68
2021/01/26 04:48:10;;;;;;;;;;;;;;;;;;5007443;28;972;-66
2021/01/26 04:50:51;;;;;;;;;;;;;;;;;;5007601;28;883;-65
2021/01/26 04:53:28;;;;;;;;;;;;;;;;;;5007707;28;844;-68
2021/01/26 04:56:14;;;;;;;;;;;;;;;;;;5007775;28;1898;-68
2021/01/26 04:58:45;;;;;;;;;;;;;;;;;;5007006;28;1145;-67
2021/01/26 05:01:14;;;;;;;;;;;;;;;;;;5007881;28;916;-64
2021/01/26 05:03:42;;;;;;;;;;;;;;;;;;5007635;28;840;-68
2021/01/26 05:06:11;;;;;;;;;;;;;;;;;;5007608;28;655;-67
2021/01/26 05:08:38;;;;;;;;;;;;;;;;;;5007643;28;930;-67
2021/01/26 05:11:08;;;;;;;;;;;;;;;;;;5007848;28;1144;-66
2021/01/26 05:13:38;;;;;;;;;;;;;;;;;;5006535;28;682;-67
2021/01/26 05:16:09;;;;;;;;;;;;;;;;;;5007431;28;1981;-66
2021/01/26 05:18:53;;;;;;;;;;;;;;;;;;5008169;28;882;-67
2021/01/26 05:21:29;;;;;;;;;;;;;;;;;;5007731;28;884;-66
2021/01/26 05:23:57;;;;;;;;;;;;;;;;;;5008610;28;832;-67
2021/01/26 05:26:23;;;;;;;;;;;;;;;;;;5008550;28;1075;-67
2021/01/26 05:28:49;;;;;;;;;;;;;;;;;;5007758;28;807;-66
2021/01/26 05:31:26;;;;;;;;;;;;;;;;;;5007219;28;934;-67
2021/01/26 05:33:52;;;;;;;;;;;;;;;;;;5007385;28;867;-66
2021/01/26 05:36:18;;;;;;;;;;;;;;;;;;5007177;28;1894;-66
2021/01/26 05:38:43;;;;;;;;;;;;;;;;;;5007162;28;843;-66
2021/01/26 05:41:09;;;;;;;;;;;;;;;;;;5007179;28;819;-66
2021/01/26 05:43:35;;;;;;;;;;;;;;;;;;5007928;28;823;-66
2021/01/26 05:46:03;;;;;;;;;;;;;;;;;;5007621;28;784;-66
2021/01/26 05:48:28;;;;;;;;;;;;;;;;;;5007468;28;850;-65
2021/01/26 05:51:12;;;;;;;;;;;;;;;;;;5008170;28;791;-66
2021/01/26 05:53:38;;;;;;;;;;;;;;;;;;5007392;28;835;-66
2021/01/26 05:56:11;;;;;;;;;;;;;;;;;;5007315;28;1943;-66
2021/01/26 05:58:37;;;;;;;;;;;;;;;;;;5007568;28;874;-66
2021/01/26 06:01:02;;;;;;;;;;;;;;;;;;5011108;28;946;-66
2021/01/26 06:03:29;;;;;;;;;;;;;;;;;;5010979;28;871;-69
2021/01/26 06:05:54;;;;;;;;;;;;;;;;;;5011770;28;832;-66
2021/01/26 06:08:20;;;;;;;;;;;;;;;;;;5011199;28;787;-66
2021/01/26 06:10:45;;;;;;;;;;;;;;;;;;5010072;28;1060;-66
2021/01/26 06:13:10;;;;;;;;;;;;;;;;;;5010022;28;815;-66
2021/01/26 06:15:38;;;;;;;;;;;;;;;;;;5010350;28;1910;-66
2021/01/26 06:18:09;;;;;;;;;;;;;;;;;;5010455;28;903;-66
2021/01/26 06:20:35;;;;;;;;;;;;;;;;;;5009804;28;859;-66
2021/01/26 06:23:11;;;;;;;;;;;;;;;;;;5009675;28;685;-65
2021/01/26 06:25:38;;;;;;;;;;;;;;;;;;5010036;28;835;-66
2021/01/26 06:28:09;;;;;;;;;;;;;;;;;;5009529;28;906;-66
2021/01/26 06:30:51;;;;;;;;;;;;;;;;;;5010114;28;828;-65
2021/01/26 06:33:35;;;;;;;;;;;;;;;;;;5010401;28;895;-65
2021/01/26 06:36:19;;;;;;;;;;;;;;;;;;5009523;28;1969;-66
2021/01/26 06:38:53;;;;;;;;;;;;;;;;;;5009485;28;919;-65
2021/01/26 06:41:42;;;;;;;;;;;;;;;;;;5010422;28;926;-66
2021/01/26 06:44:23;;;;;;;;;;;;;;;;;;5009688;28;855;-65
2021/01/26 06:47:03;;;;;;;;;;;;;;;;;;5009242;28;836;-67
2021/01/26 06:49:38;;;;;;;;;;;;;;;;;;5009772;28;942;-66
2021/01/26 06:52:06;;;;;;;;;;;;;;;;;;5009661;28;808;-65
2021/01/26 06:54:38;;;;;;;;;;;;;;;;;;5008380;28;848;-65
2021/01/26 06:57:29;;;;;;;;;;;;;;;;;;5009496;28;1890;-66
2021/01/26 07:00:13;;;;;;;;;;;;;;;;;;5001933;28;1289;-65
2021/01/26 07:02:51;;;;;;;;;;;;;;;;;;5009487;28;862;-65
2021/01/26 07:05:16;;;;;;;;;;;;;;;;;;5009524;28;852;-66
2021/01/26 07:08:01;;;;;;;;;;;;;;;;;;5009622;28;911;-66
2021/01/26 07:10:26;;;;;;;;;;;;;;;;;;5005796;28;1749;-66
2021/01/26 07:12:54;;;;;;;;;;;;;;;;;;5000654;28;887;-66
2021/01/26 07:15:34;;;;;;;;;;;;;;;;;;5009540;28;1977;-65
2021/01/26 07:18:09;;;;;;;;;;;;;;;;;;5009008;28;870;-66
2021/01/26 07:20:54;;;;;;;;;;;;;;;;;;5009146;28;957;-66
2021/01/26 07:23:19;;;;;;;;;;;;;;;;;;5009584;28;820;-66
2021/01/26 07:25:57;;;;;;;;;;;;;;;;;;5008560;28;847;-64
2021/01/26 07:28:41;;;;;;;;;;;;;;;;;;5008551;28;1229;-67
2021/01/26 07:31:16;;;;;;;;;;;;;;;;;;5008806;28;812;-66
2021/01/26 07:33:44;;;;;;;;;;;;;;;;;;5008823;28;835;-66
2021/01/26 07:36:20;;;;;;;;;;;;;;;;;;5008581;28;1967;-66
2021/01/26 07:38:54;;;;;;;;;;;;;;;;;;5005041;28;1942;-65
2021/01/26 07:41:29;;;;;;;;;;;;;;;;;;5001988;28;867;-66
2021/01/26 07:44:00;;;;;;;;;;;;;;;;;;5009350;28;886;-66
2021/01/26 07:46:31;;;;;;;;;;;;;;;;;;5009041;28;851;-66
2021/01/26 07:49:09;;;;;;;;;;;;;;;;;;5009393;28;1011;-66
2021/01/26 07:51:37;;;;;;;;;;;;;;;;;;5008258;28;871;-66
2021/01/26 07:54:10;;;;;;;;;;;;;;;;;;5008313;28;899;-65
2021/01/26 07:56:37;;;;;;;;;;;;;;;;;;5009171;28;1989;-65
2021/01/26 07:59:02;;;;;;;;;;;;;;;;;;5008368;28;835;-67
2021/01/26 08:01:28;;;;;;;;;;;;;;;;;;5008998;28;946;-67
2021/01/26 08:04:00;;;;;;;;;;;;;;;;;;5009403;28;854;-65
2021/01/26 08:06:39;;;;;;;;;;;;;;;;;;5009377;28;871;-65
2021/01/26 08:09:09;;;;;;;;;;;;;;;;;;5007995;28;1133;-64
2021/01/26 08:11:34;;;;;;;;;;;;;;;;;;5007781;28;1191;-64
2021/01/26 08:14:00;;;;;;;;;;;;;;;;;;5008499;28;859;-65
2021/01/26 08:16:32;;;;;;;;;;;;;;;;;;5008758;28;1910;-65
2021/01/26 08:18:58;;;;;;;;;;;;;;;;;;5007434;28;852;-66
2021/01/26 08:21:28;;;;;;;;;;;;;;;;;;5007521;28;926;-66
2021/01/26 08:24:27;;;;;;;;;;;;;;;;;;5008843;28;887;-65
2021/01/26 08:26:55;;;;;;;;;;;;;;;;;;4974819;28;1232;-65
2021/01/26 08:29:40;;;;;;;;;;;;;;;;;;5007055;28;986;-65
2021/01/26 08:32:35;;;;;;;;;;;;;;;;;;4995991;28;1321;-65
2021/01/26 08:35:04;;;;;;;;;;;;;;;;;;4998805;28;1353;-65
2021/01/26 08:37:41;;;;;;;;;;;;;;;;;;5008053;28;1965;-65
2021/01/26 08:40:11;;;;;;;;;;;;;;;;;;5008047;28;828;-65
2021/01/26 08:42:42;;;;;;;;;;;;;;;;;;5008047;28;860;-64
2021/01/26 08:45:07;;;;;;;;;;;;;;;;;;5008001;28;879;-65
2021/01/26 08:47:39;;;;;;;;;;;;;;;;;;5008273;28;828;-64
2021/01/26 08:50:12;;;;;;;;;;;;;;;;;;5007805;28;927;-64
2021/01/26 08:52:38;;;;;;;;;;;;;;;;;;5007852;28;878;-66
2021/01/26 08:55:03;;;;;;;;;;;;;;;;;;5008346;28;819;-65
2021/01/26 08:57:29;;;;;;;;;;;;;;;;;;5008043;28;1906;-67
2021/01/26 08:59:55;;;;;;;;;;;;;;;;;;5008404;28;849;-64
2021/01/26 09:02:49;;;;;;;;;;;;;;;;;;5007948;28;882;-65
2021/01/26 09:05:34;;;;;;;;;;;;;;;;;;4998034;28;1345;-64
2021/01/26 09:08:05;;;;;;;;;;;;;;;;;;5006239;28;946;-65
2021/01/26 09:10:33;;;;;;;;;;;;;;;;;;5007078;28;1100;-63
2021/01/26 09:12:58;;;;;;;;;;;;;;;;;;5007855;28;840;-67
2021/01/26 09:15:24;;;;;;;;;;;;;;;;;;5007707;28;1982;-65
2021/01/26 09:17:55;;;;;;;;;;;;;;;;;;5006975;28;946;-65
2021/01/26 09:20:22;;;;;;;;;;;;;;;;;;5007450;28;871;-65
2021/01/26 09:22:48;;;;;;;;;;;;;;;;;;5006599;28;1094;-65
2021/01/26 09:25:24;;;;;;;;;;;;;;;;;;5007299;28;799;-65
2021/01/26 09:28:00;;;;;;;;;;;;;;;;;;5007597;28;859;-65
2021/01/26 09:30:26;;;;;;;;;;;;;;;;;;5007017;28;815;-64
2021/01/26 09:32:54;;;;;;;;;;;;;;;;;;5006075;28;879;-65
2021/01/26 09:35:20;;;;;;;;;;;;;;;;;;5010220;28;944;-65
2021/01/26 09:37:46;;;;;;;;;;;;;;;;;;5010063;28;1971;-66
2021/01/26 09:40:12;;;;;;;;;;;;;;;;;;5010647;28;854;-63
2021/01/26 09:42:38;;;;;;;;;;;;;;;;;;5010542;28;1154;-66
2021/01/26 09:45:06;;;;;;;;;;;;;;;;;;5011065;28;832;-64
2021/01/26 09:47:32;;;;;;;;;;;;;;;;;;5010959;28;950;-66
2021/01/26 09:50:05;;;;;;;;;;;;;;;;;;5011978;28;1027;-65
2021/01/26 09:52:30;;;;;;;;;;;;;;;;;;5010633;28;1154;-67
2021/01/26 09:55:10;;;;;;;;;;;;;;;;;;5011363;28;877;-65
2021/01/26 09:57:35;;;;;;;;;;;;;;;;;;5010009;28;1882;-66
2021/01/26 10:00:03;;;;;;;;;;;;;;;;;;5010437;28;800;-67
2021/01/26 10:02:29;;;;;;;;;;;;;;;;;;5011268;28;820;-68
2021/01/26 10:04:54;;;;;;;;;;;;;;;;;;5011311;28;910;-65
2021/01/26 10:07:21;;;;;;;;;;;;;;;;;;5010277;28;902;-65
2021/01/26 10:09:46;;;;;;;;;;;;;;;;;;5010697;28;1065;-67
2021/01/26 10:12:17;;;;;;;;;;;;;;;;;;5010294;28;922;-66
2021/01/26 10:15:03;;;;;;;;;;;;;;;;;;5010471;28;895;-65
2021/01/26 10:17:28;;;;;;;;;;;;;;;;;;5010981;28;1902;-68
2021/01/26 10:19:56;;;;;;;;;;;;;;;;;;5010775;28;835;-66
2021/01/26 10:22:22;;;;;;;;;;;;;;;;;;5009725;28;907;-65
2021/01/26 10:24:47;;;;;;;;;;;;;;;;;;5010100;28;827;-66
2021/01/26 10:27:19;;;;;;;;;;;;;;;;;;5010477;28;824;-66
2021/01/26 10:29:45;;;;;;;;;;;;;;;;;;5009567;28;1062;-65
2021/01/26 10:32:11;;;;;;;;;;;;;;;;;;5009955;28;831;-66
2021/01/26 10:34:38;;;;;;;;;;;;;;;;;;5010206;28;839;-66
2021/01/26 10:37:28;;;;;;;;;;;;;;;;;;5009868;28;1902;-65
2021/01/26 10:40:08;;;;;;;;;;;;;;;;;;5005039;28;1969;-65
2021/01/26 10:42:34;;;;;;;;;;;;;;;;;;5009748;28;891;-66
2021/01/26 10:44:59;;;;;;;;;;;;;;;;;;5009515;28;812;-65
2021/01/26 10:47:39;;;;;;;;;;;;;;;;;;5010628;28;938;-66
2021/01/26 10:50:12;;;;;;;;;;;;;;;;;;5009287;28;823;-66
2021/01/26 10:52:40;;;;;;;;;;;;;;;;;;5009610;28;847;-66
2021/01/26 10:55:07;;;;;;;;;;;;;;;;;;5009290;28;839;-66
2021/01/26 10:57:32;;;;;;;;;;;;;;;;;;5009356;28;1963;-65
2021/01/26 10:59:57;;;;;;;;;;;;;;;;;;5010531;28;899;-66
2021/01/26 11:02:23;;;;;;;;;;;;;;;;;;5009561;28;827;-65
2021/01/26 11:04:48;;;;;;;;;;;;;;;;;;5009296;28;891;-65
2021/01/26 11:07:13;;;;;;;;;;;;;;;;;;5009442;28;925;-66
2021/01/26 11:09:39;;;;;;;;;;;;;;;;;;5009566;28;1088;-66
2021/01/26 11:12:04;;;;;;;;;;;;;;;;;;5009408;28;929;-65
2021/01/26 11:14:30;;;;;;;;;;;;;;;;;;5009370;28;898;-64
2021/01/26 11:16:55;;;;;;;;;;;;;;;;;;5010407;28;1996;-66
2021/01/26 11:19:22;;;;;;;;;;;;;;;;;;5009141;28;835;-66
2021/01/26 11:21:47;;;;;;;;;;;;;;;;;;5008472;28;1155;-66
2021/01/26 11:24:12;;;;;;;;;;;;;;;;;;5009011;28;870;-65
2021/01/26 11:26:38;;;;;;;;;;;;;;;;;;5008640;28;922;-65
2021/01/26 11:29:03;;;;;;;;;;;;;;;;;;5008714;28;863;-65
2021/01/26 11:31:29;;;;;;;;;;;;;;;;;;5009522;28;857;-66
2021/01/26 11:33:54;;;;;;;;;;;;;;;;;;5009980;28;914;-65
2021/01/26 11:36:20;;;;;;;;;;;;;;;;;;5008769;28;1893;-65
2021/01/26 11:38:45;;;;;;;;;;;;;;;;;;5009000;28;894;-65
2021/01/26 11:41:11;;;;;;;;;;;;;;;;;;5008991;28;894;-63
2021/01/26 11:43:36;;;;;;;;;;;;;;;;;;5008732;28;847;-66
2021/01/26 11:46:03;;;;;;;;;;;;;;;;;;5009015;28;869;-65
2021/01/26 11:48:29;;;;;;;;;;;;;;;;;;5009477;28;930;-64
2021/01/26 11:50:55;;;;;;;;;;;;;;;;;;5009762;28;952;-65
2021/01/26 11:53:21;;;;;;;;;;;;;;;;;;5008659;28;871;-65
2021/01/26 11:55:47;;;;;;;;;;;;;;;;;;5008563;28;1969;-65
2021/01/26 11:58:12;;;;;;;;;;;;;;;;;;5008042;28;883;-65
2021/01/26 12:00:37;;;;;;;;;;;;;;;;;;5008211;28;879;-65
2021/01/26 12:03:04;;;;;;;;;;;;;;;;;;5008062;28;803;-66
2021/01/26 12:05:31;;;;;;;;;;;;;;;;;;5008380;28;832;-67
2021/01/26 12:07:56;;;;;;;;;;;;;;;;;;5009256;28;918;-64
2021/01/26 12:10:22;;;;;;;;;;;;;;;;;;5007899;28;1096;-65
2021/01/26 12:12:48;;;;;;;;;;;;;;;;;;5008278;28;906;-63
2021/01/26 12:15:20;;;;;;;;;;;;;;;;;;5008127;28;918;-65
2021/01/26 12:17:45;;;;;;;;;;;;;;;;;;5007954;28;2019;-65
2021/01/26 12:20:11;;;;;;;;;;;;;;;;;;5007694;28;831;-65
2021/01/26 12:22:36;;;;;;;;;;;;;;;;;;5007876;28;895;-65
2021/01/26 12:25:01;;;;;;;;;;;;;;;;;;5008304;28;840;-65
2021/01/26 12:27:27;;;;;;;;;;;;;;;;;;5009057;28;992;-66
2021/01/26 12:29:52;;;;;;;;;;;;;;;;;;5007549;28;843;-64
2021/01/26 12:32:17;;;;;;;;;;;;;;;;;;5007923;28;843;-65
2021/01/26 12:34:43;;;;;;;;;;;;;;;;;;5007844;28;937;-65
2021/01/26 12:37:08;;;;;;;;;;;;;;;;;;5008026;28;2259;-64
2021/01/26 12:39:34;;;;;;;;;;;;;;;;;;5008229;28;831;-66
2021/01/26 12:41:59;;;;;;;;;;;;;;;;;;5008588;28;831;-65
2021/01/26 12:44:24;;;;;;;;;;;;;;;;;;5008433;28;847;-66
2021/01/26 12:46:50;;;;;;;;;;;;;;;;;;5008156;28;651;-67
2021/01/26 12:49:16;;;;;;;;;;;;;;;;;;5008355;28;911;-66
2021/01/26 12:51:42;;;;;;;;;;;;;;;;;;5007864;28;835;-66
2021/01/26 12:54:07;;;;;;;;;;;;;;;;;;5007976;28;839;-66
2021/01/26 12:56:32;;;;;;;;;;;;;;;;;;5007899;28;1979;-66
2021/01/26 12:58:58;;;;;;;;;;;;;;;;;;5008381;28;842;-66
2021/01/26 13:01:24;;;;;;;;;;;;;;;;;;5007797;28;890;-66
2021/01/26 13:03:49;;;;;;;;;;;;;;;;;;5007937;28;858;-66
2021/01/26 13:06:15;;;;;;;;;;;;;;;;;;5007688;28;846;-66
2021/01/26 13:08:40;;;;;;;;;;;;;;;;;;5009373;28;792;-66
2021/01/26 13:11:05;;;;;;;;;;;;;;;;;;5013458;28;1088;-64
2021/01/26 13:13:31;;;;;;;;;;;;;;;;;;5014114;28;1221;-66
2021/01/26 13:15:56;;;;;;;;;;;;;;;;;;5014678;28;1902;-66
2021/01/26 13:18:21;;;;;;;;;;;;;;;;;;5014028;28;858;-66
2021/01/26 13:20:47;;;;;;;;;;;;;;;;;;5013810;28;855;-66
2021/01/26 13:23:13;;;;;;;;;;;;;;;;;;5013592;28;903;-62
2021/01/26 13:25:39;;;;;;;;;;;;;;;;;;5013530;28;875;-67
2021/01/26 13:28:05;;;;;;;;;;;;;;;;;;5013463;28;871;-67
2021/01/26 13:30:30;;;;;;;;;;;;;;;;;;5014278;28;903;-67
2021/01/26 13:32:56;;;;;;;;;;;;;;;;;;5014264;28;913;-66
2021/01/26 13:35:23;;;;;;;;;;;;;;;;;;5013711;28;831;-65
2021/01/26 13:37:48;;;;;;;;;;;;;;;;;;5014134;28;1886;-66
2021/01/26 13:40:14;;;;;;;;;;;;;;;;;;5012427;28;840;-65
2021/01/26 13:42:39;;;;;;;;;;;;;;;;;;5013355;28;863;-65
2021/01/26 13:45:06;;;;;;;;;;;;;;;;;;5012545;28;832;-64
2021/01/26 13:47:32;;;;;;;;;;;;;;;;;;5014397;28;1090;-66
2021/01/26 13:49:57;;;;;;;;;;;;;;;;;;5014543;28;867;-64
2021/01/26 13:52:22;;;;;;;;;;;;;;;;;;5011989;28;825;-65
2021/01/26 13:54:48;;;;;;;;;;;;;;;;;;5013815;28;824;-64
2021/01/26 13:57:13;;;;;;;;;;;;;;;;;;5013614;28;1965;-65
2021/01/26 13:59:38;;;;;;;;;;;;;;;;;;5013438;28;868;-65
2021/01/26 14:02:04;;;;;;;;;;;;;;;;;;5013203;28;887;-64
2021/01/26 14:04:29;;;;;;;;;;;;;;;;;;5013243;28;935;-66
2021/01/26 14:06:55;;;;;;;;;;;;;;;;;;5013685;28;795;-65
2021/01/26 14:09:20;;;;;;;;;;;;;;;;;;5013569;28;1241;-65
2021/01/26 14:11:45;;;;;;;;;;;;;;;;;;5014057;28;835;-64
2021/01/26 14:14:11;;;;;;;;;;;;;;;;;;5013120;28;886;-66
2021/01/26 14:16:37;;;;;;;;;;;;;;;;;;5013033;28;1922;-64
2021/01/26 14:19:03;;;;;;;;;;;;;;;;;;5012968;28;906;-66
2021/01/26 14:21:28;;;;;;;;;;;;;;;;;;5010636;28;816;-65
2021/01/26 14:23:54;;;;;;;;;;;;;;;;;;5010448;28;835;-64
2021/01/26 14:26:19;;;;;;;;;;;;;;;;;;5010279;28;753;-66
2021/01/26 14:28:44;;;;;;;;;;;;;;;;;;5010744;28;796;-65
2021/01/26 14:31:11;;;;;;;;;;;;;;;;;;5010002;28;883;-65
2021/01/26 14:33:36;;;;;;;;;;;;;;;;;;5010118;28;903;-65
2021/01/26 14:36:02;;;;;;;;;;;;;;;;;;5010473;28;1894;-66
2021/01/26 14:38:27;;;;;;;;;;;;;;;;;;5009667;28;1005;-65
2021/01/26 14:40:54;;;;;;;;;;;;;;;;;;5009959;28;835;-65
2021/01/26 14:43:19;;;;;;;;;;;;;;;;;;5009845;28;879;-64
2021/01/26 14:45:46;;;;;;;;;;;;;;;;;;5010220;28;827;-65
2021/01/26 14:48:15;;;;;;;;;;;;;;;;;;5009864;28;808;-65
2021/01/26 14:50:40;;;;;;;;;;;;;;;;;;5009511;28;894;-65
2021/01/26 14:53:06;;;;;;;;;;;;;;;;;;5009858;28;812;-65
2021/01/26 14:55:31;;;;;;;;;;;;;;;;;;5009965;28;822;-67
2021/01/26 14:57:57;;;;;;;;;;;;;;;;;;5010349;28;1909;-65
2021/01/26 15:00:23;;;;;;;;;;;;;;;;;;5009342;28;892;-65
2021/01/26 15:02:48;;;;;;;;;;;;;;;;;;5009201;28;916;-65
2021/01/26 15:05:13;;;;;;;;;;;;;;;;;;5009455;28;913;-65
2021/01/26 15:07:39;;;;;;;;;;;;;;;;;;5007990;28;883;-64
2021/01/26 15:10:06;;;;;;;;;;;;;;;;;;5009799;28;1131;-65
2021/01/26 15:12:31;;;;;;;;;;;;;;;;;;5008502;28;1055;-64
2021/01/26 15:14:57;;;;;;;;;;;;;;;;;;5010006;28;895;-65
2021/01/26 15:17:22;;;;;;;;;;;;;;;;;;5009389;28;1898;-65
2021/01/26 15:19:47;;;;;;;;;;;;;;;;;;5009090;28;878;-65
2021/01/26 15:22:13;;;;;;;;;;;;;;;;;;5008932;28;807;-65
2021/01/26 15:24:39;;;;;;;;;;;;;;;;;;5008668;28;804;-65
2021/01/26 15:27:05;;;;;;;;;;;;;;;;;;5008901;28;808;-64
2021/01/26 15:29:30;;;;;;;;;;;;;;;;;;5009630;28;890;-64
2021/01/26 15:31:56;;;;;;;;;;;;;;;;;;5006282;28;860;-65
2021/01/26 15:34:21;;;;;;;;;;;;;;;;;;5008855;28;843;-65
2021/01/26 15:36:47;;;;;;;;;;;;;;;;;;5008740;28;1907;-66
2021/01/26 15:39:15;;;;;;;;;;;;;;;;;;5008676;28;836;-65
2021/01/26 15:41:40;;;;;;;;;;;;;;;;;;5008753;28;820;-65
2021/01/26 15:44:06;;;;;;;;;;;;;;;;;;5008956;28;942;-65
2021/01/26 15:46:31;;;;;;;;;;;;;;;;;;5008627;28;891;-66
2021/01/26 15:48:57;;;;;;;;;;;;;;;;;;5009234;28;871;-65
2021/01/26 15:51:22;;;;;;;;;;;;;;;;;;5008957;28;831;-65
2021/01/26 15:53:47;;;;;;;;;;;;;;;;;;5008516;28;839;-65
2021/01/26 15:56:13;;;;;;;;;;;;;;;;;;5008313;28;1923;-64
2021/01/26 15:58:38;;;;;;;;;;;;;;;;;;5008536;28;898;-65
2021/01/26 16:01:03;;;;;;;;;;;;;;;;;;5006626;28;808;-65
2021/01/26 16:03:29;;;;;;;;;;;;;;;;;;5008701;28;921;-65
2021/01/26 16:05:55;;;;;;;;;;;;;;;;;;5007555;28;872;-63
2021/01/26 16:08:20;;;;;;;;;;;;;;;;;;5008235;28;831;-65
2021/01/26 16:10:46;;;;;;;;;;;;;;;;;;5008430;28;1080;-65
2021/01/26 16:13:11;;;;;;;;;;;;;;;;;;5008242;28;883;-63
2021/01/26 16:15:38;;;;;;;;;;;;;;;;;;5008363;28;894;-65
2021/01/26 16:18:05;;;;;;;;;;;;;;;;;;5008398;28;1969;-65
2021/01/26 16:20:31;;;;;;;;;;;;;;;;;;5008589;28;867;-66
2021/01/26 16:22:56;;;;;;;;;;;;;;;;;;5009149;28;891;-65
2021/01/26 16:25:22;;;;;;;;;;;;;;;;;;5008665;28;815;-65
2021/01/26 16:27:48;;;;;;;;;;;;;;;;;;4991345;28;819;-65
2021/01/26 16:30:15;;;;;;;;;;;;;;;;;;4988559;28;887;-65
2021/01/26 16:32:41;;;;;;;;;;;;;;;;;;4988403;28;839;-65
2021/01/26 16:35:07;;;;;;;;;;;;;;;;;;4988475;28;896;-65
2021/01/26 16:37:33;;;;;;;;;;;;;;;;;;4988170;28;1949;-65
2021/01/26 16:40:00;;;;;;;;;;;;;;;;;;4987605;28;841;-65
2021/01/26 16:42:25;;;;;;;;;;;;;;;;;;4988365;28;942;-65
2021/01/26 16:44:50;;;;;;;;;;;;;;;;;;4988262;28;824;-65
2021/01/26 16:47:16;;;;;;;;;;;;;;;;;;4988229;28;819;-65
2021/01/26 16:49:42;;;;;;;;;;;;;;;;;;4988838;28;886;-65
2021/01/26 16:52:07;;;;;;;;;;;;;;;;;;4987844;28;898;-66
2021/01/26 16:54:34;;;;;;;;;;;;;;;;;;4987933;28;899;-65
2021/01/26 16:56:59;;;;;;;;;;;;;;;;;;4988317;28;1894;-66
2021/01/26 16:59:25;;;;;;;;;;;;;;;;;;4987961;28;690;-65
2021/01/26 17:01:50;;;;;;;;;;;;;;;;;;4987248;28;878;-64
2021/01/26 17:04:15;;;;;;;;;;;;;;;;;;4987490;28;919;-64
2021/01/26 17:06:41;;;;;;;;;;;;;;;;;;4988126;28;811;-64
2021/01/26 17:09:06;;;;;;;;;;;;;;;;;;4986053;28;1188;-64
2021/01/26 17:11:33;;;;;;;;;;;;;;;;;;5006287;28;1096;-68
2021/01/26 17:13:58;;;;;;;;;;;;;;;;;;5007877;28;800;-65
2021/01/26 17:16:24;;;;;;;;;;;;;;;;;;5006809;28;1894;-64
2021/01/26 17:18:50;;;;;;;;;;;;;;;;;;5006788;28;894;-65
2021/01/26 17:21:15;;;;;;;;;;;;;;;;;;5006278;28;1064;-66
2021/01/26 17:23:41;;;;;;;;;;;;;;;;;;5007317;28;715;-65
2021/01/26 17:26:06;;;;;;;;;;;;;;;;;;5007328;28;938;-65
2021/01/26 17:28:31;;;;;;;;;;;;;;;;;;5007459;28;819;-68